Tremelo, Belgium
Current Conditions -  °F | °C
As of 1:50 PM on Thursday 27 Nov 2014 (Local Time) from EBBR Reporting Station
Light Rain Light Rain  
Wind Chill: 50°   Ceiling: 4500
Heat Index: 50°   Visibility: 6mi
Dew Point: 46°   Wind: 5mph
Humidity: 87%   Direction: 120°ESE
Pressure: 29.68"   Gusts: NA
Location:  50.99°N, 4.71°E
Report Text: EBBR 271250Z 12004KT 9999 -RA FEW008 BKN045 10/08 Q1005 TEMPO 3500 RADZ BKN007
Loading
Personal Weather Stations






























Interactive Weather Map New forecast layout! Learn more

10-Day Weather Forecast

Advertisements
Track Severe Weather on mobile